| time (UTC) | temp C | wind direction | speed KPH | gust KPH | rain 1hr cm | rain 24hr cm | rain mn cm | humidity % | barometer mb |
| 20260507092536 | 10 | 286 | 1.6 | 8.0 | 0.00 | 0.74 | 0.71 | 99 | 1013.5 |
| 20260507085537 | 10 | 272 | 3.2 | 8.0 | 0.00 | 0.74 | 0.71 | 99 | 1013.0 |
| 20260507083522 | 10 | 282 | 1.6 | 9.7 | 0.03 | 0.74 | 0.71 | 99 | 1012.9 |
| 20260507075525 | 9 | 277 | 3.2 | 8.0 | 0.03 | 0.74 | 0.71 | 99 | 1012.4 |
| 20260507073525 | 10 | 286 | 1.6 | 4.8 | 0.00 | 0.71 | 0.69 | 99 | 1012.1 |
| 20260507072525 | 10 | 268 | 0.0 | 1.6 | 0.00 | 0.71 | 0.69 | 99 | 1012.0 |
| 20260507071525 | 10 | 283 | 1.6 | 4.8 | 0.00 | 0.71 | 0.69 | 99 | 1011.8 |
| 20260507070525 | 10 | 285 | 3.2 | 8.0 | 0.00 | 0.71 | 0.69 | 99 | 1011.8 |
| 20260507064526 | 10 | 286 | 1.6 | 8.0 | 0.03 | 0.71 | 0.69 | 99 | 1011.6 |
| 20260507063526 | 10 | 276 | 3.2 | 8.0 | 0.05 | 0.71 | 0.69 | 99 | 1011.5 |
| 20260507062527 | 10 | 276 | 1.6 | 4.8 | 0.08 | 0.71 | 0.69 | 99 | 1011.4 |
| 20260507061527 | 10 | 271 | 3.2 | 4.8 | 0.13 | 0.71 | 0.69 | 99 | 1011.4 |
| 20260507050530 | 10 | 282 | 1.6 | 8.0 | 0.08 | 0.43 | 0.41 | 99 | 1010.4 |
| 20260507041516 | 10 | 254 | 1.6 | 4.8 | 0.08 | 0.38 | 0.36 | 99 | 1009.8 |
| 20260507035517 | 10 | 257 | 0.0 | 1.6 | 0.08 | 0.36 | 0.33 | 99 | 1009.6 |
| 20260507030520 | 10 | 274 | 1.6 | 3.2 | 0.10 | 0.30 | 0.28 | 99 | 1009.4 |
| 20260507024520 | 10 | 242 | 0.0 | 1.6 | 0.08 | 0.28 | 0.25 | 99 | 1009.2 |
| 20260507021522 | 10 | 266 | 0.0 | 1.6 | 0.13 | 0.23 | 0.20 | 99 | 1009.2 |
| 20260507020521 | 10 | 237 | 1.6 | 4.8 | 0.13 | 0.20 | 0.18 | 99 | 1009.2 |
| 20260507015522 | 11 | 267 | 1.6 | 8.0 | 0.13 | 0.20 | 0.18 | 99 | 1009.1 |
| 20260507013523 | 11 | 202 | 0.0 | 3.2 | 0.10 | 0.18 | 0.15 | 99 | 1009.0 |
| 20260507012525 | 11 | 269 | 1.6 | 4.8 | 0.05 | 0.15 | 0.10 | 99 | 1008.9 |
| 20260507010524 | 11 | 260 | 1.6 | 9.7 | 0.05 | 0.10 | 0.05 | 98 | 1009.0 |
| 20260507003525 | 11 | 273 | 1.6 | 8.0 | 0.05 | 0.10 | 0.05 | 98 | 1009.0 |
| 20260507000527 | 12 | 272 | 0.0 | 3.2 | 0.00 | 0.05 | 0.00 | 96 | 1008.8 |
| 20260506235527 | 12 | 281 | 0.0 | 1.6 | 0.00 | 0.05 | 0.00 | 96 | 1008.8 |
| 20260506234527 | 12 | 0.0 | 3.2 | 0.00 | 0.05 | 0.00 | 95 | 1008.8 | |
| 20260506230529 | 12 | 0.0 | 0.0 | 0.00 | 0.05 | 0.00 | 96 | 1008.7 | |
| 20260506225530 | 12 | 255 | 1.6 | 3.2 | 0.00 | 0.05 | 0.00 | 96 | 1008.6 |
| 20260506223530 | 12 | 261 | 0.0 | 1.6 | 0.03 | 0.05 | 0.00 | 96 | 1008.5 |
| 20260506221531 | 12 | 275 | 0.0 | 1.6 | 0.03 | 0.05 | 0.00 | 95 | 1008.4 |
| 20260506211534 | 12 | 0.0 | 0.0 | 0.00 | 0.03 | 0.03 | 92 | 1008.1 | |
| 20260506205535 | 12 | 0.0 | 0.0 | 0.00 | 0.03 | 0.03 | 90 | 1008.0 | |
| 20260506204535 | 13 | 0.0 | 0.0 | 0.00 | 0.03 | 0.03 | 89 | 1008.0 | |
| 20260506202536 | 13 | 0.0 | 0.0 | 0.00 | 0.05 | 0.03 | 86 | 1008.0 | |
| 20260506194537 | 14 | 281 | 1.6 | 4.8 | 0.00 | 0.05 | 0.03 | 84 | 1007.7 |
| 20260506191539 | 14 | 280 | 0.0 | 3.2 | 0.00 | 0.05 | 0.03 | 85 | 1007.4 |
| 20260506184540 | 15 | 0.0 | 0.0 | 0.00 | 0.23 | 0.03 | 84 | 1006.9 | |
| 20260506183540 | 15 | 0.0 | 0.0 | 0.00 | 0.38 | 0.03 | 84 | 1006.6 | |
| 20260506182542 | 15 | 0.0 | 0.0 | 0.00 | 0.43 | 0.03 | 84 | 1006.6 | |
| 20260506173544 | 16 | 272 | 0.0 | 3.2 | 0.00 | 1.32 | 0.03 | 74 | 1006.3 |
| 20260506172543 | 16 | 269 | 0.0 | 1.6 | 0.00 | 1.60 | 0.03 | 72 | 1006.2 |
| 20260506171516 | 16 | 274 | 0.0 | 1.6 | 0.00 | 1.83 | 0.03 | 72 | 1006.2 |
| 20260506163517 | 17 | 282 | 1.6 | 4.8 | 0.00 | 1.93 | 0.03 | 70 | 1006.1 |
| 20260506155519 | 17 | 283 | 1.6 | 4.8 | 0.00 | 1.93 | 0.03 | 62 | 1006.2 |
| 20260506151521 | 18 | 272 | 1.6 | 4.8 | 0.00 | 1.93 | 0.03 | 61 | 1006.3 |
| 20260506150521 | 18 | 268 | 3.2 | 8.0 | 0.00 | 1.93 | 0.03 | 61 | 1006.3 |
| 20260506145521 | 18 | 224 | 1.6 | 3.2 | 0.00 | 1.93 | 0.03 | 61 | 1006.3 |
| 20260506144522 | 18 | 296 | 3.2 | 12.9 | 0.00 | 1.93 | 0.03 | 59 | 1006.2 |
| 20260506143522 | 19 | 263 | 1.6 | 9.7 | 0.00 | 1.93 | 0.03 | 58 | 1006.4 |
| 20260506142523 | 19 | 277 | 1.6 | 8.0 | 0.00 | 1.93 | 0.03 | 58 | 1006.5 |
| 20260506141523 | 19 | 239 | 3.2 | 11.3 | 0.00 | 1.93 | 0.03 | 59 | 1006.6 |
| 20260506140524 | 18 | 273 | 1.6 | 8.0 | 0.00 | 1.93 | 0.03 | 60 | 1006.6 |
| 20260506134524 | 18 | 244 | 1.6 | 4.8 | 0.00 | 1.93 | 0.03 | 60 | 1006.6 |
| 20260506133525 | 18 | 253 | 1.6 | 4.8 | 0.00 | 1.93 | 0.03 | 60 | 1006.6 |
| 20260506130555 | 18 | 225 | 1.6 | 8.0 | 0.00 | 1.93 | 0.03 | 61 | 1006.8 |
| 20260506110531 | 17 | 236 | 1.6 | 9.7 | 0.00 | 1.93 | 0.03 | 70 | 1007.2 |
| 20260506105531 | 18 | 259 | 3.2 | 4.8 | 0.00 | 1.93 | 0.03 | 64 | 1007.2 |
| 20260506104532 | 18 | 253 | 3.2 | 11.3 | 0.00 | 1.93 | 0.03 | 68 | 1007.5 |
| 20260506101533 | 17 | 255 | 1.6 | 4.8 | 0.00 | 1.93 | 0.03 | 69 | 1007.5 |
| 20260506100534 | 17 | 281 | 3.2 | 9.7 | 0.00 | 1.93 | 0.03 | 72 | 1007.5 |